createdAt,value
2018-08-09T00:00:44.859Z,21.1
2018-08-09T00:01:45.767Z,21.1
2018-08-09T00:02:48.336Z,21.1
2018-08-09T00:03:48.245Z,21.1
2018-08-09T00:04:48.165Z,21
2018-08-09T00:05:48.102Z,21
2018-08-09T00:06:48.261Z,20.9
2018-08-09T00:07:48.187Z,20.8
2018-08-09T00:08:48.319Z,20.9
2018-08-09T00:09:48.228Z,20.9
2018-08-09T00:10:49.841Z,20.9
2018-08-09T00:11:49.978Z,20.9
2018-08-09T00:12:50.913Z,20.9
2018-08-09T00:13:51.050Z,20.9
2018-08-09T00:14:50.965Z,21
2018-08-09T00:15:51.146Z,21
2018-08-09T00:16:51.074Z,21
2018-08-09T00:17:50.984Z,21
2018-08-09T00:18:50.907Z,21.1
2018-08-09T00:19:50.830Z,21.1
2018-08-09T00:20:51.225Z,21.1
2018-08-09T00:21:53.741Z,21.1
2018-08-09T00:22:53.653Z,21.1
2018-08-09T00:23:54.148Z,21.1
2018-08-09T00:24:54.628Z,21.2
2018-08-09T00:25:54.541Z,21.2
2018-08-09T00:26:55.469Z,21.2
2018-08-09T00:27:55.406Z,21.2
2018-08-09T00:28:58.335Z,21.2
2018-08-09T00:29:58.250Z,21.2
2018-08-09T00:30:58.821Z,21.3
2018-08-09T00:31:58.788Z,21.3
2018-08-09T00:32:58.736Z,21.3
2018-08-09T00:33:58.642Z,21.3
2018-08-09T00:34:58.779Z,21.4
2018-08-09T00:35:58.707Z,21.4
2018-08-09T00:37:01.649Z,21.4
2018-08-09T00:38:01.792Z,21.4
2018-08-09T00:39:01.717Z,21.4
2018-08-09T00:40:01.887Z,21.4
2018-08-09T00:41:02.272Z,21.4
2018-08-09T00:42:02.881Z,21.4
2018-08-09T00:43:02.803Z,21.5
2018-08-09T00:44:03.399Z,21.5
2018-08-09T00:45:03.302Z,21.5
2018-08-09T00:46:06.199Z,21.5
2018-08-09T00:47:06.145Z,21.5
2018-08-09T00:48:06.115Z,21.4
2018-08-09T00:49:06.273Z,21.4
2018-08-09T00:50:06.196Z,21.4
2018-08-09T00:51:07.219Z,21.3
2018-08-09T00:52:07.147Z,21.3
2018-08-09T00:53:07.296Z,21.3
2018-08-09T00:54:10.954Z,21.3
2018-08-09T00:55:10.874Z,21.3
2018-08-09T00:56:10.797Z,21.3
2018-08-09T00:57:13.636Z,21.3
2018-08-09T00:58:13.539Z,21.3
2018-08-09T00:59:13.679Z,21.2
2018-08-09T01:00:13.861Z,21.2
2018-08-09T01:01:14.428Z,21.2
2018-08-09T01:02:14.366Z,21.2
2018-08-09T01:03:14.300Z,21.2
2018-08-09T01:04:14.199Z,21.2
2018-08-09T01:05:14.807Z,21.1
2018-08-09T01:06:14.757Z,21.1
2018-08-09T01:07:17.467Z,21
2018-08-09T01:08:20.126Z,21
2018-08-09T01:09:20.308Z,21
2018-08-09T01:10:20.239Z,20.9
2018-08-09T01:11:23.310Z,21
2018-08-09T01:12:29.976Z,21
2018-08-09T01:13:29.904Z,20.9
2018-08-09T01:14:29.888Z,21
2018-08-09T01:15:29.827Z,20.9
2018-08-09T01:16:30.724Z,20.9
2018-08-09T01:17:30.654Z,20.9
2018-08-09T01:18:30.566Z,20.8
2018-08-09T01:19:30.703Z,20.9
2018-08-09T01:20:30.607Z,21
2018-08-09T01:21:32.014Z,21
2018-08-09T01:22:32.609Z,21
2018-08-09T01:23:32.574Z,21
2018-08-09T01:24:32.543Z,20.9
2018-08-09T01:25:32.450Z,21
2018-08-09T01:26:32.386Z,21
2018-08-09T01:27:32.289Z,20.9
2018-08-09T01:28:32.456Z,20.8
2018-08-09T01:29:32.382Z,20.8
2018-08-09T01:30:32.283Z,20.8
2018-08-09T01:31:33.675Z,20.8
2018-08-09T01:32:33.589Z,20.8
2018-08-09T01:33:33.539Z,20.8
2018-08-09T01:34:33.441Z,20.8
2018-08-09T01:35:33.373Z,20.8
2018-08-09T01:36:33.276Z,20.8
2018-08-09T01:37:33.231Z,20.8
2018-08-09T01:38:33.209Z,20.8
2018-08-09T01:39:36.200Z,20.8
2018-08-09T01:40:36.138Z,20.8
2018-08-09T01:41:36.514Z,20.7
2018-08-09T01:42:36.651Z,20.7
2018-08-09T01:43:36.605Z,20.8
2018-08-09T01:44:36.527Z,20.8
2018-08-09T01:45:36.438Z,20.8
2018-08-09T01:46:36.574Z,20.8
2018-08-09T01:47:36.494Z,20.9
2018-08-09T01:48:36.431Z,20.9
2018-08-09T01:49:36.379Z,20.8
2018-08-09T01:50:36.312Z,20.8
2018-08-09T01:51:36.666Z,20.7
2018-08-09T01:52:36.592Z,20.8
2018-08-09T01:53:36.514Z,20.7
2018-08-09T01:54:37.464Z,20.7
2018-08-09T01:55:37.622Z,20.8
2018-08-09T01:56:37.555Z,20.7
2018-08-09T01:57:38.486Z,20.8
2018-08-09T01:58:38.388Z,20.7
2018-08-09T01:59:38.340Z,20.7
2018-08-09T02:00:38.245Z,20.7
2018-08-09T02:01:38.636Z,20.7
2018-08-09T02:02:38.545Z,20.7
2018-08-09T02:03:42.508Z,20.7
2018-08-09T02:04:42.683Z,20.6
2018-08-09T02:05:43.530Z,20.7
2018-08-09T02:06:43.456Z,20.7
2018-08-09T02:07:46.427Z,20.6
2018-08-09T02:08:46.337Z,20.6
2018-08-09T02:09:49.089Z,20.6
2018-08-09T02:10:48.998Z,20.5
2018-08-09T02:11:49.394Z,20.6
2018-08-09T02:12:49.361Z,20.5
2018-08-09T02:13:50.267Z,20.5
2018-08-09T02:14:51.188Z,20.5
2018-08-09T02:15:51.107Z,20.7
2018-08-09T02:16:53.009Z,20.7
2018-08-09T02:17:52.910Z,20.8
2018-08-09T02:18:53.047Z,20.8
2018-08-09T02:19:52.983Z,20.8
2018-08-09T02:20:59.850Z,20.8
2018-08-09T02:22:02.097Z,20.8
2018-08-09T02:23:02.015Z,20.8
2018-08-09T02:24:01.918Z,20.8
2018-08-09T02:25:01.877Z,20.8
2018-08-09T02:26:02.003Z,20.9
2018-08-09T02:27:01.969Z,20.8
2018-08-09T02:28:01.876Z,20.8
2018-08-09T02:29:02.030Z,20.7
2018-08-09T02:30:01.941Z,20.7
2018-08-09T02:31:05.862Z,20.7
2018-08-09T02:32:09.636Z,20.7
2018-08-09T02:33:09.559Z,20.7
2018-08-09T02:34:09.521Z,20.7
2018-08-09T02:35:09.713Z,20.6
2018-08-09T02:36:09.664Z,20.7
2018-08-09T02:37:09.587Z,20.7
2018-08-09T02:38:09.596Z,20.8
2018-08-09T02:39:10.502Z,20.8
2018-08-09T02:40:13.193Z,20.8
2018-08-09T02:41:13.121Z,20.8
2018-08-09T02:42:13.506Z,20.8
2018-08-09T02:43:13.460Z,20.8
2018-08-09T02:44:13.376Z,20.8
2018-08-09T02:45:13.971Z,20.8
2018-08-09T02:46:13.892Z,20.8
2018-08-09T02:47:13.826Z,20.8
2018-08-09T02:48:13.970Z,20.8
2018-08-09T02:49:13.884Z,20.8
2018-08-09T02:50:13.815Z,20.8
2018-08-09T02:51:13.763Z,20.7
2018-08-09T02:52:14.362Z,20.8
2018-08-09T02:53:14.289Z,20.8
2018-08-09T02:54:14.235Z,20.9
2018-08-09T02:55:14.146Z,20.9
2018-08-09T02:56:14.316Z,20.8
2018-08-09T02:57:14.244Z,20.7
2018-08-09T02:58:15.158Z,20.7
2018-08-09T02:59:15.056Z,20.8
2018-08-09T03:00:15.969Z,20.7
2018-08-09T03:01:15.925Z,20.7
2018-08-09T03:02:16.337Z,20.7
2018-08-09T03:03:16.487Z,20.7
2018-08-09T03:04:16.403Z,20.6
2018-08-09T03:05:16.355Z,20.6
2018-08-09T03:06:16.257Z,20.5
2018-08-09T03:07:16.170Z,20.5
2018-08-09T03:08:16.091Z,20.5
2018-08-09T03:09:16.687Z,20.5
2018-08-09T03:10:16.622Z,20.4
2018-08-09T03:11:16.754Z,20.4
2018-08-09T03:12:20.138Z,20.4
2018-08-09T03:13:20.095Z,20.4
2018-08-09T03:14:20.024Z,20.4
2018-08-09T03:15:20.159Z,20.4
2018-08-09T03:16:20.063Z,20.4
2018-08-09T03:17:20.886Z,20.4
2018-08-09T03:18:21.165Z,20.4
2018-08-09T03:19:21.084Z,20.4
2018-08-09T03:20:20.998Z,20.4
2018-08-09T03:21:21.156Z,20.4
2018-08-09T03:22:21.772Z,20.4
2018-08-09T03:23:21.691Z,20.4
2018-08-09T03:24:25.054Z,20.4
2018-08-09T03:25:25.336Z,20.5
2018-08-09T03:26:25.937Z,20.5
2018-08-09T03:27:25.914Z,20.5
2018-08-09T03:28:25.844Z,20.6
2018-08-09T03:29:25.742Z,20.6
2018-08-09T03:30:26.347Z,20.6
2018-08-09T03:31:26.276Z,20.7
2018-08-09T03:32:26.942Z,20.7
2018-08-09T03:33:32.609Z,20.6
2018-08-09T03:34:32.538Z,20.6
2018-08-09T03:35:32.442Z,20.6
2018-08-09T03:36:33.347Z,20.5
2018-08-09T03:37:33.297Z,20.5
2018-08-09T03:38:33.249Z,20.5
2018-08-09T03:39:33.166Z,20.5
2018-08-09T03:40:37.050Z,20.4
2018-08-09T03:41:36.966Z,20.4
2018-08-09T03:42:37.374Z,20.4
2018-08-09T03:43:37.297Z,20.3
2018-08-09T03:44:38.231Z,20.3
2018-08-09T03:45:42.381Z,20.2
2018-08-09T03:46:42.294Z,20.3
2018-08-09T03:47:47.935Z,20.2
2018-08-09T03:48:47.846Z,20.2
2018-08-09T03:49:47.782Z,20.1
2018-08-09T03:50:47.690Z,20.1
2018-08-09T03:51:47.628Z,20.2
2018-08-09T03:52:49.276Z,20.1
2018-08-09T03:53:49.460Z,20.2
2018-08-09T03:54:52.095Z,20.1
2018-08-09T03:55:52.070Z,20.2
2018-08-09T03:56:52.000Z,20.1
2018-08-09T03:58:01.645Z,20
2018-08-09T03:59:01.567Z,20.1
2018-08-09T04:00:01.476Z,20.1
2018-08-09T04:01:06.428Z,20
2018-08-09T04:02:06.362Z,20
2018-08-09T04:03:06.765Z,20
2018-08-09T04:04:06.673Z,19.9
2018-08-09T04:05:09.320Z,20
2018-08-09T04:06:09.226Z,20
2018-08-09T04:07:09.180Z,19.9
2018-08-09T04:08:09.131Z,19.9
2018-08-09T04:09:09.043Z,19.9
2018-08-09T04:10:11.639Z,19.9
2018-08-09T04:11:11.594Z,19.9
2018-08-09T04:12:11.548Z,19.9
2018-08-09T04:13:11.938Z,19.8
2018-08-09T04:14:12.086Z,19.8
2018-08-09T04:15:12.234Z,19.8
2018-08-09T04:16:12.164Z,19.8
2018-08-09T04:17:12.073Z,19.9
2018-08-09T04:18:12.999Z,19.9
2018-08-09T04:19:12.926Z,19.9
2018-08-09T04:20:12.830Z,19.9
2018-08-09T04:21:13.739Z,19.9
2018-08-09T04:22:13.645Z,19.9
2018-08-09T04:23:14.606Z,19.9
2018-08-09T04:24:14.528Z,19.9
2018-08-09T04:25:14.455Z,19.8
2018-08-09T04:26:14.388Z,19.8
2018-08-09T04:27:14.310Z,19.8
2018-08-09T04:28:14.447Z,19.8
2018-08-09T04:29:14.410Z,19.8
2018-08-09T04:30:14.343Z,19.8
2018-08-09T04:31:14.270Z,19.7
2018-08-09T04:32:14.687Z,19.7
2018-08-09T04:33:15.301Z,19.7
2018-08-09T04:34:15.495Z,19.7
2018-08-09T04:35:17.958Z,19.7
2018-08-09T04:36:19.088Z,19.7
2018-08-09T04:37:18.998Z,19.8
2018-08-09T04:38:21.646Z,19.8
2018-08-09T04:39:21.798Z,19.8
2018-08-09T04:40:24.568Z,19.8
2018-08-09T04:41:24.485Z,19.8
2018-08-09T04:42:24.393Z,19.7
2018-08-09T04:43:25.016Z,19.7
2018-08-09T04:44:24.927Z,19.7
2018-08-09T04:45:24.916Z,19.7
2018-08-09T04:46:25.830Z,19.7
2018-08-09T04:47:25.717Z,19.7
2018-08-09T04:48:25.631Z,19.7
2018-08-09T04:49:28.190Z,19.6
2018-08-09T04:50:28.113Z,19.6
2018-08-09T04:51:33.591Z,19.7
2018-08-09T04:52:33.499Z,19.7
2018-08-09T04:53:33.846Z,19.7
2018-08-09T04:54:36.838Z,19.7
2018-08-09T04:55:40.710Z,19.7
2018-08-09T04:56:40.614Z,19.8
2018-08-09T04:57:40.556Z,19.8
2018-08-09T04:58:40.452Z,19.8
2018-08-09T04:59:40.374Z,19.8
2018-08-09T05:00:40.287Z,19.8
2018-08-09T05:01:40.227Z,19.8
2018-08-09T05:02:40.130Z,19.8
2018-08-09T05:03:41.481Z,19.9
2018-08-09T05:04:41.419Z,19.9
2018-08-09T05:05:41.326Z,20
2018-08-09T05:06:41.241Z,20
2018-08-09T05:07:41.159Z,20.1
2018-08-09T05:08:41.049Z,20.1
2018-08-09T05:09:40.977Z,20.1
2018-08-09T05:10:40.905Z,20.1
2018-08-09T05:11:40.811Z,20.1
2018-08-09T05:12:40.733Z,20.2
2018-08-09T05:13:42.074Z,20.3
2018-08-09T05:14:41.994Z,20.3
2018-08-09T05:15:41.940Z,20.4
2018-08-09T05:16:41.853Z,20.6
2018-08-09T05:17:41.766Z,20.7
2018-08-09T05:18:41.661Z,20.7
2018-08-09T05:19:41.582Z,20.8
2018-08-09T05:20:41.499Z,20.9
2018-08-09T05:21:41.422Z,21.1
2018-08-09T05:22:41.360Z,21.3
2018-08-09T05:23:42.108Z,21.4
2018-08-09T05:24:42.024Z,21.6
2018-08-09T05:25:42.168Z,21.7
2018-08-09T05:26:42.108Z,21.8
2018-08-09T05:27:42.039Z,22
2018-08-09T05:28:41.959Z,22.2
2018-08-09T05:29:41.873Z,22.3
2018-08-09T05:30:44.738Z,22.5
2018-08-09T05:31:44.665Z,22.6
2018-08-09T05:32:44.564Z,22.7
2018-08-09T05:33:44.914Z,22.7
2018-08-09T05:34:44.845Z,22.6
2018-08-09T05:35:44.748Z,22.6
2018-08-09T05:36:44.875Z,22.7
2018-08-09T05:37:44.807Z,22.7
2018-08-09T05:38:44.765Z,22.8
2018-08-09T05:39:44.687Z,22.9
2018-08-09T05:40:47.333Z,23
2018-08-09T05:41:47.262Z,23.2
2018-08-09T05:42:47.188Z,23.3
2018-08-09T05:43:47.578Z,23.4
2018-08-09T05:44:47.491Z,23.6
2018-08-09T05:45:47.635Z,23.7
2018-08-09T05:46:47.544Z,23.7
2018-08-09T05:47:47.456Z,23.8
2018-08-09T05:48:47.363Z,23.9
2018-08-09T05:49:47.262Z,23.9
2018-08-09T05:50:47.174Z,24
2018-08-09T05:51:47.090Z,24
2018-08-09T05:52:47.338Z,23.8
2018-08-09T05:53:49.780Z,23.9
2018-08-09T05:54:49.674Z,24.1
2018-08-09T05:55:50.051Z,24.4
2018-08-09T05:56:49.968Z,24.4
2018-08-09T05:57:49.903Z,24.5
2018-08-09T05:58:49.829Z,24.6
2018-08-09T05:59:49.750Z,24.6
2018-08-09T06:00:49.872Z,24.6
2018-08-09T06:01:52.774Z,24.8
2018-08-09T06:02:52.701Z,24.9
2018-08-09T06:03:53.047Z,25
2018-08-09T06:04:52.982Z,25
2018-08-09T06:05:53.152Z,25.1
2018-08-09T06:06:53.185Z,25.4
2018-08-09T06:07:53.107Z,25.6
2018-08-09T06:08:53.027Z,25.7
2018-08-09T06:09:52.938Z,25.8
2018-08-09T06:10:55.730Z,25.9
2018-08-09T06:11:58.405Z,25.9
2018-08-09T06:12:58.331Z,25.9
2018-08-09T06:13:58.936Z,26.1
2018-08-09T06:14:58.861Z,26.3
2018-08-09T06:15:58.748Z,26.4
2018-08-09T06:16:58.671Z,26.4
2018-08-09T06:17:58.610Z,26.5
2018-08-09T06:18:59.094Z,26.5
2018-08-09T06:20:02.241Z,26.5
2018-08-09T06:21:02.163Z,26.6
2018-08-09T06:22:02.084Z,26.6
2018-08-09T06:23:02.019Z,26.5
2018-08-09T06:24:02.374Z,26.6
2018-08-09T06:25:02.275Z,26.7
2018-08-09T06:26:02.176Z,26.8
2018-08-09T06:27:02.074Z,26.9
2018-08-09T06:28:04.855Z,26.9
2018-08-09T06:29:04.786Z,26.8
2018-08-09T06:30:05.705Z,26.7
2018-08-09T06:31:05.612Z,26.7
2018-08-09T06:32:05.529Z,26.7
2018-08-09T06:33:05.450Z,26.7
2018-08-09T06:34:06.421Z,26.8
2018-08-09T06:35:06.336Z,26.9
2018-08-09T06:36:06.453Z,27.1
2018-08-09T06:37:06.360Z,27.1
2018-08-09T06:38:06.272Z,27.2
2018-08-09T06:39:06.180Z,27.3
2018-08-09T06:40:06.101Z,27.2
2018-08-09T06:41:07.021Z,27.2
2018-08-09T06:42:06.934Z,27.3
2018-08-09T06:43:06.856Z,27.5
2018-08-09T06:44:07.209Z,27.7
2018-08-09T06:45:07.109Z,27.8
2018-08-09T06:46:07.020Z,28
2018-08-09T06:47:06.931Z,28.1
2018-08-09T06:48:07.904Z,28.1
2018-08-09T06:49:07.831Z,28
2018-08-09T06:50:07.734Z,28
2018-08-09T06:51:08.637Z,28.1
2018-08-09T06:52:08.537Z,28.1
2018-08-09T06:53:09.440Z,28.3
2018-08-09T06:54:12.474Z,28.3
2018-08-09T06:55:12.419Z,28.5
2018-08-09T06:56:12.398Z,28.6
2018-08-09T06:57:12.461Z,28.6
2018-08-09T06:58:13.379Z,28.6
2018-08-09T06:59:14.319Z,28.6
2018-08-09T07:00:15.225Z,28.6
2018-08-09T07:01:15.164Z,28.6
2018-08-09T07:02:15.082Z,28.6
2018-08-09T07:03:15.009Z,28.6
2018-08-09T07:04:17.362Z,28.8
2018-08-09T07:05:17.265Z,28.7
2018-08-09T07:06:17.172Z,28.5
2018-08-09T07:07:17.117Z,28.5
2018-08-09T07:08:17.041Z,28.4
2018-08-09T07:09:17.975Z,28.3
2018-08-09T07:10:18.559Z,28.2
2018-08-09T07:11:19.469Z,28.1
2018-08-09T07:12:19.388Z,28.1
2018-08-09T07:13:19.313Z,28.3
2018-08-09T07:14:19.736Z,28.3
2018-08-09T07:15:20.643Z,28.4
2018-08-09T07:16:20.560Z,28.4
2018-08-09T07:17:20.471Z,28.4
2018-08-09T07:18:20.380Z,28.3
2018-08-09T07:19:20.278Z,28.3
2018-08-09T07:20:20.416Z,28.4
2018-08-09T07:21:23.783Z,28.7
2018-08-09T07:22:23.679Z,28.7
2018-08-09T07:23:23.608Z,28.8
2018-08-09T07:24:23.967Z,28.7
2018-08-09T07:25:25.105Z,28.8
2018-08-09T07:26:26.184Z,28.9
2018-08-09T07:27:26.502Z,29.1
2018-08-09T07:28:26.406Z,29.1
2018-08-09T07:29:26.323Z,29.2
2018-08-09T07:30:26.450Z,29.2
2018-08-09T07:31:26.365Z,29.2
2018-08-09T07:32:26.270Z,29.1
2018-08-09T07:33:26.186Z,29.2
2018-08-09T07:34:30.542Z,29.4
2018-08-09T07:35:31.441Z,29.8
2018-08-09T07:36:31.473Z,29.8
2018-08-09T07:37:31.509Z,29.8
2018-08-09T07:38:31.436Z,29.5
2018-08-09T07:39:31.780Z,29.6
2018-08-09T07:40:32.309Z,29.7
2018-08-09T07:41:32.240Z,29.8
2018-08-09T07:42:32.144Z,29.7
2018-08-09T07:43:32.058Z,29.1
2018-08-09T07:44:32.412Z,29.4
2018-08-09T07:45:32.359Z,29.6
2018-08-09T07:46:33.264Z,29.7
2018-08-09T07:47:33.173Z,29.8
2018-08-09T07:48:33.385Z,29.9
2018-08-09T07:49:33.580Z,29.8
2018-08-09T07:50:33.562Z,29.8
2018-08-09T07:51:33.473Z,29.8
2018-08-09T07:52:33.374Z,30
2018-08-09T07:53:36.175Z,30
2018-08-09T07:54:39.459Z,30.2
2018-08-09T07:55:39.370Z,30.2
2018-08-09T07:56:39.282Z,30.3
2018-08-09T07:57:39.257Z,30.3
2018-08-09T07:58:41.906Z,30.3
2018-08-09T07:59:41.831Z,30.4
2018-08-09T08:00:42.151Z,30.4
2018-08-09T08:01:43.117Z,30.3
2018-08-09T08:02:43.042Z,30.2
2018-08-09T08:03:43.939Z,30.1
2018-08-09T08:04:46.284Z,30.3
2018-08-09T08:05:46.449Z,30.2
2018-08-09T08:06:46.728Z,30.2
2018-08-09T08:07:46.652Z,30.5
2018-08-09T08:08:46.557Z,30.5
2018-08-09T08:09:46.456Z,30.7
2018-08-09T08:10:46.378Z,30.7
2018-08-09T08:11:46.289Z,30.6
2018-08-09T08:12:46.422Z,30.7
2018-08-09T08:13:46.350Z,30.8
2018-08-09T08:14:46.928Z,30.9
2018-08-09T08:15:46.852Z,31
2018-08-09T08:16:46.765Z,31
2018-08-09T08:17:47.677Z,30.7
2018-08-09T08:18:47.595Z,30.4
2018-08-09T08:19:48.513Z,30.4
2018-08-09T08:20:48.714Z,30.4
2018-08-09T08:21:49.356Z,30.6
2018-08-09T08:22:49.260Z,31
2018-08-09T08:23:51.791Z,30.9
2018-08-09T08:24:53.139Z,31.1
2018-08-09T08:25:53.045Z,31
2018-08-09T08:26:53.265Z,31.1
2018-08-09T08:27:53.190Z,31.2
2018-08-09T08:28:53.107Z,30.9
2018-08-09T08:29:54.000Z,30.8
2018-08-09T08:30:53.942Z,30.7
2018-08-09T08:31:56.865Z,30.7
2018-08-09T08:32:57.003Z,30.8
2018-08-09T08:33:57.133Z,31
2018-08-09T08:35:00.741Z,31
2018-08-09T08:36:00.683Z,30.9
2018-08-09T08:37:03.639Z,31.1
2018-08-09T08:38:03.540Z,31
2018-08-09T08:39:03.440Z,31
2018-08-09T08:40:03.341Z,31
2018-08-09T08:41:03.261Z,30.9
2018-08-09T08:42:04.225Z,30.8
2018-08-09T08:43:04.129Z,30.7
2018-08-09T08:44:04.271Z,30.6
2018-08-09T08:45:04.603Z,30.5
2018-08-09T08:46:04.558Z,30.5
2018-08-09T08:47:04.458Z,30.7
2018-08-09T08:48:04.378Z,30.7
2018-08-09T08:49:04.309Z,30.7
2018-08-09T08:50:05.213Z,30.7
2018-08-09T08:51:05.354Z,30.7
2018-08-09T08:52:05.269Z,30.7
2018-08-09T08:53:05.338Z,30.9
2018-08-09T08:54:08.212Z,31
2018-08-09T08:55:08.684Z,30.9
2018-08-09T08:56:08.937Z,31
2018-08-09T08:57:08.853Z,30.9
2018-08-09T08:58:08.782Z,30.8
2018-08-09T08:59:08.758Z,30.8
2018-08-09T09:00:09.676Z,30.7
2018-08-09T09:01:12.343Z,30.6
2018-08-09T09:02:14.988Z,30.7
2018-08-09T09:03:15.100Z,30.5
2018-08-09T09:04:17.816Z,30.7
2018-08-09T09:05:18.534Z,30.8
2018-08-09T09:06:18.464Z,30.8
2018-08-09T09:07:21.112Z,30.8
2018-08-09T09:08:22.076Z,30.9
2018-08-09T09:09:23.197Z,31
2018-08-09T09:10:23.355Z,31.1
2018-08-09T09:11:23.276Z,31.1
2018-08-09T09:12:23.215Z,31.3
2018-08-09T09:13:25.921Z,31.5
2018-08-09T09:14:25.945Z,31.6
2018-08-09T09:15:26.290Z,31.4
2018-08-09T09:16:27.208Z,31.5
2018-08-09T09:17:30.595Z,31.3
2018-08-09T09:18:34.413Z,31.2
2018-08-09T09:19:34.331Z,31.2
2018-08-09T09:20:37.733Z,31.1
2018-08-09T09:21:37.681Z,31
2018-08-09T09:22:40.399Z,31
2018-08-09T09:23:40.534Z,31
2018-08-09T09:24:40.440Z,31
2018-08-09T09:25:45.683Z,31
2018-08-09T09:27:46.468Z,30.7
2018-08-09T09:28:46.385Z,30.8
2018-08-09T09:29:49.491Z,30.7
2018-08-09T09:30:49.418Z,30.7
2018-08-09T09:31:49.358Z,30.5
2018-08-09T09:32:49.262Z,30.4
2018-08-09T09:33:49.157Z,30.2
2018-08-09T09:34:49.073Z,30.2
2018-08-09T09:35:49.414Z,30.1
2018-08-09T09:36:49.342Z,30.2
2018-08-09T09:37:49.277Z,30.2
2018-08-09T09:38:53.188Z,30.3
2018-08-09T09:39:53.085Z,30.2
2018-08-09T09:40:53.995Z,30.2
2018-08-09T09:41:53.901Z,30
2018-08-09T09:42:53.836Z,30.1
2018-08-09T09:43:53.739Z,30.2
2018-08-09T09:44:53.641Z,30.1
2018-08-09T09:45:58.566Z,30.1
2018-08-09T09:47:02.235Z,29.9
2018-08-09T09:48:03.185Z,30
2018-08-09T09:49:05.826Z,30
2018-08-09T09:50:06.742Z,29.9
2018-08-09T09:51:06.648Z,30
2018-08-09T09:52:06.558Z,30.1
2018-08-09T09:53:09.335Z,30
2018-08-09T09:54:09.243Z,30
2018-08-09T09:55:09.155Z,30
2018-08-09T09:56:10.510Z,30
2018-08-09T09:57:10.444Z,30
2018-08-09T09:58:10.368Z,30
2018-08-09T09:59:10.264Z,30
2018-08-09T10:00:10.151Z,29.9
2018-08-09T10:01:11.059Z,29.9
2018-08-09T10:02:11.201Z,29.9
2018-08-09T10:03:11.105Z,29.7
2018-08-09T10:04:11.000Z,29.7
2018-08-09T10:05:11.153Z,29.6
2018-08-09T10:06:15.502Z,29.7
2018-08-09T10:07:16.869Z,29.6
2018-08-09T10:08:17.080Z,29.6
2018-08-09T10:09:17.002Z,29.6
2018-08-09T10:10:17.905Z,29.7
2018-08-09T10:11:20.395Z,29.7
2018-08-09T10:12:22.888Z,29.7
2018-08-09T10:13:22.789Z,29.7
2018-08-09T10:14:22.696Z,29.7
2018-08-09T10:15:26.095Z,29.7
2018-08-09T10:16:26.434Z,29.8
2018-08-09T10:17:27.351Z,29.9
2018-08-09T10:18:33.734Z,29.9
2018-08-09T10:19:33.867Z,29.8
2018-08-09T10:20:33.768Z,29.8
2018-08-09T10:21:33.668Z,29.8
2018-08-09T10:22:33.592Z,30
2018-08-09T10:23:33.532Z,30
2018-08-09T10:24:33.437Z,30
2018-08-09T10:25:33.327Z,30
2018-08-09T10:26:33.709Z,29.9
2018-08-09T10:27:33.607Z,30
2018-08-09T10:28:33.529Z,29.9
2018-08-09T10:29:35.116Z,29.8
2018-08-09T10:30:35.252Z,30
2018-08-09T10:31:35.191Z,29.8
2018-08-09T10:32:40.588Z,29.6
2018-08-09T10:33:40.504Z,29.5
2018-08-09T10:34:40.413Z,29.4
2018-08-09T10:35:40.320Z,29.6
2018-08-09T10:36:40.684Z,29.8
2018-08-09T10:37:40.593Z,29.9
2018-08-09T10:38:42.514Z,29.7
2018-08-09T10:39:44.996Z,29.8
2018-08-09T10:40:47.572Z,29.9
2018-08-09T10:41:47.490Z,29.9
2018-08-09T10:42:47.845Z,30
2018-08-09T10:43:50.907Z,30.1
2018-08-09T10:44:51.497Z,30.1
2018-08-09T10:45:51.429Z,30.2
2018-08-09T10:46:52.004Z,30.3
2018-08-09T10:47:52.908Z,30.4
2018-08-09T10:48:59.036Z,30.2
2018-08-09T10:50:02.478Z,30.3
2018-08-09T10:51:02.413Z,30.5
2018-08-09T10:52:03.321Z,30.5
2018-08-09T10:53:03.227Z,30.5
2018-08-09T10:54:03.175Z,30.5
2018-08-09T10:55:03.093Z,30.6
2018-08-09T10:56:02.997Z,30.7
2018-08-09T10:57:04.357Z,30.7
2018-08-09T10:58:04.253Z,30.8
2018-08-09T10:59:04.175Z,30.8
2018-08-09T11:00:04.102Z,30.7
2018-08-09T11:01:05.008Z,30.7
2018-08-09T11:02:08.830Z,30.7
2018-08-09T11:03:08.750Z,30.7
2018-08-09T11:04:11.685Z,30.6
2018-08-09T11:05:15.103Z,30.4
2018-08-09T11:06:15.005Z,30.5
2018-08-09T11:07:15.600Z,30.6
2018-08-09T11:08:15.519Z,30.6
2018-08-09T11:09:18.601Z,30.6
2018-08-09T11:10:19.509Z,30.5
2018-08-09T11:11:19.665Z,30.4
2018-08-09T11:12:20.567Z,30.5
2018-08-09T11:13:22.472Z,30.4
2018-08-09T11:14:22.426Z,30.5
2018-08-09T11:15:22.635Z,30.4
2018-08-09T11:16:22.543Z,30.3
2018-08-09T11:17:23.075Z,30.4
2018-08-09T11:18:22.988Z,30.6
2018-08-09T11:19:32.164Z,30.7
2018-08-09T11:20:35.018Z,30.8
2018-08-09T11:21:34.937Z,30.7
2018-08-09T11:22:37.836Z,30.7
2018-08-09T11:23:39.081Z,30.7
2018-08-09T11:24:39.463Z,30.5
2018-08-09T11:25:39.382Z,30.5
2018-08-09T11:26:39.283Z,30.3
2018-08-09T11:27:49.041Z,30.2
2018-08-09T11:28:48.954Z,30.1
2018-08-09T11:29:48.901Z,30.2
2018-08-09T11:30:48.805Z,30.4
2018-08-09T11:31:48.742Z,30.5
2018-08-09T11:32:48.657Z,30.6
2018-08-09T11:33:49.585Z,30.5
2018-08-09T11:34:49.496Z,30.5
2018-08-09T11:35:49.416Z,30.5
2018-08-09T11:36:49.319Z,30.6
2018-08-09T11:37:55.250Z,30.7
2018-08-09T11:38:56.153Z,30.7
2018-08-09T11:39:56.282Z,30.7
2018-08-09T11:40:56.992Z,30.8
2018-08-09T11:41:56.924Z,30.9
2018-08-09T11:42:57.165Z,30.9
2018-08-09T11:43:57.307Z,30.9
2018-08-09T11:45:00.742Z,30.5
2018-08-09T11:46:00.638Z,30.5
2018-08-09T11:47:03.521Z,30.5
2018-08-09T11:48:08.766Z,30.5
2018-08-09T11:49:08.819Z,30.4
2018-08-09T11:50:09.004Z,30.5
2018-08-09T11:51:11.936Z,30.7
2018-08-09T11:52:11.836Z,30.6
2018-08-09T11:53:14.962Z,30.7
2018-08-09T11:54:14.867Z,30.6
2018-08-09T11:55:20.304Z,30.6
2018-08-09T11:56:20.325Z,30.7
2018-08-09T11:57:21.631Z,30.8
2018-08-09T11:58:22.211Z,30.7
2018-08-09T11:59:24.664Z,30.7
2018-08-09T12:00:24.824Z,30.7
2018-08-09T12:01:25.102Z,30.7
2018-08-09T12:02:25.246Z,30.7
2018-08-09T12:03:25.290Z,30.6
2018-08-09T12:04:29.895Z,30.5
2018-08-09T12:05:30.034Z,30.6
2018-08-09T12:06:30.952Z,30.6
2018-08-09T12:07:30.857Z,30.7
2018-08-09T12:08:32.460Z,30.8
2018-08-09T12:09:32.623Z,30.9
2018-08-09T12:10:32.987Z,31.1
2018-08-09T12:11:41.827Z,31.2
2018-08-09T12:12:41.985Z,31.2
2018-08-09T12:13:45.830Z,31.2
2018-08-09T12:14:45.761Z,31.1
2018-08-09T12:15:50.534Z,31.1
2018-08-09T12:16:50.904Z,31.1
2018-08-09T12:17:52.033Z,31
2018-08-09T12:18:55.046Z,31
2018-08-09T12:19:54.938Z,31
2018-08-09T12:20:55.204Z,31
2018-08-09T12:21:55.567Z,31
2018-08-09T12:22:55.475Z,31.1
2018-08-09T12:23:55.821Z,31
2018-08-09T12:24:55.958Z,31
2018-08-09T12:25:55.905Z,30.9
2018-08-09T12:26:56.511Z,31
2018-08-09T12:27:56.624Z,31
2018-08-09T12:29:00.707Z,31
2018-08-09T12:30:01.624Z,30.9
2018-08-09T12:31:04.108Z,31
2018-08-09T12:32:07.853Z,31
2018-08-09T12:33:09.098Z,31
2018-08-09T12:34:09.163Z,30.9
2018-08-09T12:35:09.077Z,31
2018-08-09T12:36:09.238Z,30.7
2018-08-09T12:37:14.270Z,30.5
2018-08-09T12:38:14.195Z,30.4
2018-08-09T12:39:14.796Z,30.5
2018-08-09T12:40:17.818Z,30.6
2018-08-09T12:41:23.524Z,30.7
2018-08-09T12:42:29.131Z,30.7
2018-08-09T12:43:29.279Z,30.9
2018-08-09T12:44:29.185Z,31
2018-08-09T12:45:29.603Z,31
2018-08-09T12:46:29.946Z,31
2018-08-09T12:47:30.077Z,31.1
2018-08-09T12:48:29.989Z,31.1
2018-08-09T12:49:33.413Z,31
2018-08-09T12:50:37.172Z,31
2018-08-09T12:51:39.918Z,31
2018-08-09T12:52:39.841Z,31.1
2018-08-09T12:53:40.423Z,31.1
2018-08-09T12:54:40.315Z,31
2018-08-09T12:55:40.691Z,31
2018-08-09T12:56:40.621Z,31.1
2018-08-09T12:57:40.529Z,31.1
2018-08-09T12:58:50.533Z,31
2018-08-09T12:59:53.682Z,31.1
2018-08-09T13:00:55.790Z,31
2018-08-09T13:01:55.737Z,30.9
2018-08-09T13:02:55.692Z,31
2018-08-09T13:04:02.296Z,31
2018-08-09T13:05:02.215Z,31
2018-08-09T13:06:02.375Z,31
2018-08-09T13:07:02.328Z,31.1
2018-08-09T13:08:03.824Z,31.2
2018-08-09T13:09:03.754Z,31.3
2018-08-09T13:10:10.773Z,31.4
2018-08-09T13:11:10.898Z,31.3
2018-08-09T13:12:14.914Z,31.3
2018-08-09T13:13:14.841Z,31.2
2018-08-09T13:14:22.226Z,31.2
2018-08-09T13:15:22.146Z,31.3
2018-08-09T13:16:25.420Z,31.3
2018-08-09T13:17:25.390Z,31.2
2018-08-09T13:18:25.335Z,31.2
2018-08-09T13:19:25.306Z,31.2
2018-08-09T13:20:34.264Z,31.2
2018-08-09T13:21:37.533Z,31.2
2018-08-09T13:22:37.487Z,31.4
2018-08-09T13:23:37.426Z,31.5
2018-08-09T13:24:50.123Z,31.3
2018-08-09T13:25:50.035Z,31.3
2018-08-09T13:26:49.963Z,31.4
2018-08-09T13:27:50.594Z,31.4
2018-08-09T13:28:50.531Z,31.4
2018-08-09T13:29:51.103Z,31.6
2018-08-09T13:30:55.219Z,31.7
2018-08-09T13:31:55.172Z,31.8
2018-08-09T13:32:55.096Z,31.7
2018-08-09T13:33:55.007Z,31.6
2018-08-09T13:34:57.779Z,31.5
2018-08-09T13:35:57.683Z,31.5
2018-08-09T13:37:01.208Z,31.5